Time;durP1;ratioP1;P1;durP2;ratioP2;P2;SDS_P1;SDS_P2;PMS_P1;PMS_P2;Temp;Humidity;BMP_temperature;BMP_pressure;BME280_temperature;BME280_humidity;BME280_pressure;Samples;Min_cycle;Max_cycle;Signal;HPM_P1;HPM_P2
2022/09/17 00:01:21;;;;;;;1999.90;999.90;;;10.20;99.90;;;;;;4994452;28;20443;-66
2022/09/17 00:03:52;;;;;;;1999.90;999.90;;;10.30;99.90;;;;;;4994351;28;20470;-66
2022/09/17 00:06:18;;;;;;;1999.90;999.90;;;10.30;99.90;;;;;;4994609;28;20422;-66
2022/09/17 00:08:44;;;;;;;1999.90;999.90;;;10.30;99.90;;;;;;4994132;28;20443;-66
2022/09/17 00:11:16;;;;;;;1999.90;999.90;;;10.30;99.90;;;;;;4994253;28;20416;-65
2022/09/17 00:13:43;;;;;;;1999.90;999.90;;;10.30;99.90;;;;;;4994287;28;20180;-66
2022/09/17 00:16:10;;;;;;;1999.90;999.90;;;10.40;99.90;;;;;;4994088;28;20495;-66
2022/09/17 00:18:39;;;;;;;1999.90;999.90;;;10.40;99.90;;;;;;4993852;28;20847;-66
2022/09/17 00:21:05;;;;;;;1999.90;999.90;;;10.50;99.90;;;;;;4994277;28;20413;-67
2022/09/17 00:23:31;;;;;;;1999.90;999.90;;;10.40;99.90;;;;;;4994028;28;20458;-66
2022/09/17 00:25:57;;;;;;;1999.90;999.90;;;10.50;99.90;;;;;;4993880;28;20466;-66
2022/09/17 00:28:23;;;;;;;1999.90;999.90;;;10.50;99.90;;;;;;4993814;28;20609;-66
2022/09/17 00:30:49;;;;;;;1999.90;999.90;;;10.50;99.90;;;;;;4993851;28;20412;-67
2022/09/17 00:33:16;;;;;;;1999.90;999.90;;;10.40;99.90;;;;;;4993894;28;20507;-66
2022/09/17 00:35:43;;;;;;;1999.90;999.90;;;10.40;99.90;;;;;;4993860;28;20584;-66
2022/09/17 00:38:09;;;;;;;1999.90;999.90;;;10.40;99.90;;;;;;4993463;28;20460;-66
2022/09/17 00:40:35;;;;;;;1999.90;999.90;;;10.40;99.90;;;;;;4993736;28;20410;-66
2022/09/17 00:43:01;;;;;;;1999.90;999.90;;;10.40;99.90;;;;;;4993679;28;21005;-66
2022/09/17 00:45:28;;;;;;;1999.90;999.90;;;10.40;99.90;;;;;;4993661;28;20593;-66
2022/09/17 00:48:00;;;;;;;1999.90;999.90;;;10.40;99.90;;;;;;4993219;28;20989;-66
2022/09/17 00:50:33;;;;;;;1999.90;999.90;;;10.40;99.90;;;;;;4993582;28;20491;-66
2022/09/17 00:53:07;;;;;;;1999.90;999.90;;;10.40;99.90;;;;;;4993678;28;20403;-66
2022/09/17 00:55:36;;;;;;;1999.90;999.90;;;10.40;99.90;;;;;;4993195;28;20397;-66
2022/09/17 00:58:05;;;;;;;1999.90;999.90;;;10.40;99.90;;;;;;4993045;28;20427;-67
2022/09/17 01:00:31;;;;;;;1999.90;999.90;;;10.40;99.90;;;;;;4993593;28;20787;-66
2022/09/17 01:02:57;;;;;;;1999.90;999.90;;;10.50;99.90;;;;;;4993221;28;20459;-66
2022/09/17 01:05:44;;;;;;;1999.90;999.90;;;10.40;99.90;;;;;;4993281;28;20793;-66
2022/09/17 01:08:27;;;;;;;1999.90;999.90;;;10.40;99.90;;;;;;4992951;28;20475;-66
2022/09/17 01:11:25;;;;;;;1999.90;999.90;;;10.40;99.90;;;;;;4993227;28;20426;-66
2022/09/17 01:13:57;;;;;;;1999.90;999.90;;;10.40;99.90;;;;;;4981155;28;20781;-66
2022/09/17 01:16:49;;;;;;;1999.90;999.90;;;10.40;99.90;;;;;;4993097;28;20398;-66
2022/09/17 01:19:36;;;;;;;1999.90;999.90;;;10.40;99.90;;;;;;4992987;28;20523;-66
2022/09/17 01:22:13;;;;;;;1999.90;999.90;;;10.40;99.90;;;;;;4992919;28;20408;-66
2022/09/17 01:24:45;;;;;;;1999.90;999.90;;;10.30;99.90;;;;;;4993031;28;20393;-66
2022/09/17 01:27:24;;;;;;;1999.90;999.90;;;10.40;99.90;;;;;;4992547;28;20409;-66
2022/09/17 01:30:08;;;;;;;1999.90;999.90;;;10.40;99.90;;;;;;4992892;28;20438;-66
2022/09/17 01:32:40;;;;;;;1999.90;999.90;;;10.30;99.90;;;;;;4992851;28;20412;-66
2022/09/17 01:35:46;;;;;;;1999.90;999.90;;;10.30;99.90;;;;;;4992776;28;20419;-67
2022/09/17 01:38:31;;;;;;;1999.90;999.90;;;10.30;99.90;;;;;;4992404;28;20458;-65
2022/09/17 01:41:18;;;;;;;1999.90;999.90;;;10.30;99.90;;;;;;4992856;28;20412;-66
2022/09/17 01:43:55;;;;;;;1999.90;999.90;;;10.30;99.90;;;;;;4992814;28;20949;-66
2022/09/17 01:46:28;;;;;;;1999.90;999.90;;;10.30;99.90;;;;;;4992644;28;20502;-66
2022/09/17 01:49:00;;;;;;;1999.90;999.90;;;10.40;99.90;;;;;;4992656;28;20442;-66
2022/09/17 01:51:29;;;;;;;1999.90;999.90;;;10.40;99.90;;;;;;4992671;28;20400;-66
2022/09/17 01:54:09;;;;;;;1999.90;999.90;;;10.40;99.90;;;;;;4992606;28;20918;-65
2022/09/17 01:56:47;;;;;;;1999.90;999.90;;;10.40;99.90;;;;;;4992304;28;20477;-66
2022/09/17 01:59:18;;;;;;;1999.90;999.90;;;10.40;99.90;;;;;;4992749;28;20797;-66
2022/09/17 02:01:47;;;;;;;1999.90;999.90;;;10.40;99.90;;;;;;4992495;28;20423;-66
2022/09/17 02:04:29;;;;;;;1999.90;999.90;;;10.30;99.90;;;;;;4992520;28;20976;-66
2022/09/17 02:07:02;;;;;;;1999.90;999.90;;;10.40;99.90;;;;;;4992461;28;20929;-66
2022/09/17 02:09:41;;;;;;;1999.90;999.90;;;10.40;99.90;;;;;;4996442;28;20929;-66
2022/09/17 02:12:14;;;;;;;1999.90;999.90;;;10.40;99.90;;;;;;4996524;28;20411;-67
2022/09/17 02:14:48;;;;;;;1999.90;999.90;;;10.40;99.90;;;;;;4996542;28;20400;-67
2022/09/17 02:17:28;;;;;;;1999.90;999.90;;;10.40;99.90;;;;;;4996143;28;20410;-67
2022/09/17 02:19:55;;;;;;;1999.90;999.90;;;10.40;99.90;;;;;;4996416;28;20409;-67
2022/09/17 02:22:31;;;;;;;1999.90;999.90;;;10.40;99.90;;;;;;4996272;28;20521;-67
2022/09/17 02:25:15;;;;;;;1999.90;999.90;;;10.50;99.90;;;;;;4979078;28;21113;-67
2022/09/17 02:28:11;;;;;;;1999.90;999.90;;;10.60;99.90;;;;;;4995871;28;20433;-67
2022/09/17 02:30:37;;;;;;;1999.90;999.90;;;10.50;99.90;;;;;;4996213;28;20399;-67
2022/09/17 02:33:07;;;;;;;1999.90;999.90;;;10.50;99.90;;;;;;4996178;28;20441;-67
2022/09/17 02:35:33;;;;;;;1999.90;999.90;;;10.40;99.90;;;;;;4996169;28;20471;-66
2022/09/17 02:37:59;;;;;;;1999.90;999.90;;;10.50;99.90;;;;;;4996016;28;20450;-67
2022/09/17 02:40:28;;;;;;;1999.90;999.90;;;10.50;99.90;;;;;;4996015;28;20641;-66
2022/09/17 02:43:18;;;;;;;1999.90;999.90;;;10.40;99.90;;;;;;4996072;28;20931;-67
2022/09/17 02:46:00;;;;;;;1999.90;999.90;;;10.50;99.90;;;;;;4995932;28;20408;-67
2022/09/17 02:48:44;;;;;;;1999.90;999.90;;;10.60;99.90;;;;;;4995589;28;20451;-67
2022/09/17 02:51:26;;;;;;;1999.90;999.90;;;10.70;99.90;;;;;;4995952;28;20412;-67
2022/09/17 02:54:04;;;;;;;1999.90;999.90;;;10.70;99.90;;;;;;4995767;28;20415;-68
2022/09/17 02:56:44;;;;;;;1999.90;999.90;;;10.70;99.90;;;;;;4995516;28;20412;-67
2022/09/17 02:59:28;;;;;;;1999.90;999.90;;;10.60;99.90;;;;;;4995594;28;20814;-67
2022/09/17 03:02:12;;;;;;;1999.90;999.90;;;10.60;99.90;;;;;;4995650;28;20400;-67
2022/09/17 03:04:40;;;;;;;1999.90;999.90;;;10.70;99.90;;;;;;4995581;28;20400;-67
2022/09/17 03:07:10;;;;;;;1999.90;999.90;;;10.70;99.90;;;;;;4995157;28;20488;-67
2022/09/17 03:09:36;;;;;;;1999.90;999.90;;;10.80;99.90;;;;;;4995661;28;20457;-67
2022/09/17 03:12:02;;;;;;;1999.90;999.90;;;10.80;99.90;;;;;;4995446;28;20408;-67
2022/09/17 03:14:28;;;;;;;1999.90;999.90;;;10.80;99.90;;;;;;4995339;28;20450;-67
2022/09/17 03:16:54;;;;;;;1999.90;999.90;;;10.80;99.90;;;;;;4995091;28;20407;-67
2022/09/17 03:19:19;;;;;;;1999.90;999.90;;;10.80;99.90;;;;;;4995038;28;20204;-67
2022/09/17 03:21:45;;;;;;;1999.90;999.90;;;10.90;99.90;;;;;;4995210;28;20173;-68
2022/09/17 03:24:11;;;;;;;1999.90;999.90;;;10.90;99.90;;;;;;4995363;28;20212;-67
2022/09/17 03:26:37;;;;;;;1999.90;999.90;;;10.90;99.90;;;;;;4995088;28;20448;-67
2022/09/17 03:29:03;;;;;;;1999.90;999.90;;;10.90;99.90;;;;;;4995155;28;20187;-68
2022/09/17 03:31:29;;;;;;;1999.90;999.90;;;10.80;99.90;;;;;;4994980;28;20882;-67
2022/09/17 03:33:54;;;;;;;1999.90;999.90;;;10.80;99.90;;;;;;4995036;28;20422;-67
2022/09/17 03:36:20;;;;;;;1999.90;999.90;;;10.80;99.90;;;;;;4994776;28;20173;-67
2022/09/17 03:38:46;;;;;;;1999.90;999.90;;;10.80;99.90;;;;;;4994750;28;20207;-67
2022/09/17 03:41:11;;;;;;;1999.90;999.90;;;10.80;99.90;;;;;;4994913;28;20165;-67
2022/09/17 03:43:38;;;;;;;1999.90;999.90;;;10.70;99.90;;;;;;4994838;28;20245;-68
2022/09/17 03:46:04;;;;;;;1999.90;999.90;;;10.70;99.90;;;;;;4995059;28;20412;-67
2022/09/17 03:48:31;;;;;;;1999.90;999.90;;;10.70;99.90;;;;;;4994535;28;20430;-67
2022/09/17 03:50:56;;;;;;;1999.90;999.90;;;10.80;99.90;;;;;;4994583;28;20414;-67
2022/09/17 03:53:22;;;;;;;1999.90;999.90;;;10.80;99.90;;;;;;4994705;28;20468;-67
2022/09/17 03:55:47;;;;;;;1999.90;999.90;;;10.80;99.90;;;;;;4994878;28;20181;-67
2022/09/17 03:58:13;;;;;;;1999.90;999.90;;;10.60;99.90;;;;;;4994293;28;20201;-67
2022/09/17 04:00:38;;;;;;;1999.90;999.90;;;10.60;99.90;;;;;;4994543;28;20176;-67
2022/09/17 04:03:05;;;;;;;1999.90;999.90;;;10.60;99.90;;;;;;4994401;28;20219;-67
2022/09/17 04:05:31;;;;;;;1999.90;999.90;;;10.70;99.90;;;;;;4994353;28;20171;-67
2022/09/17 04:07:56;;;;;;;1999.90;999.90;;;10.60;99.90;;;;;;4994161;28;20486;-67
2022/09/17 04:10:22;;;;;;;1999.90;999.90;;;10.60;99.90;;;;;;4994398;28;20223;-67
2022/09/17 04:12:47;;;;;;;1999.90;999.90;;;10.60;99.90;;;;;;4994368;28;20176;-67
2022/09/17 04:15:13;;;;;;;1999.90;999.90;;;10.50;99.90;;;;;;4994344;28;20176;-67
2022/09/17 04:17:39;;;;;;;1999.90;999.90;;;10.50;99.90;;;;;;4993889;28;20169;-67
2022/09/17 04:20:05;;;;;;;1999.90;999.90;;;10.50;99.90;;;;;;4994146;28;20200;-67
2022/09/17 04:22:31;;;;;;;1999.90;999.90;;;10.50;99.90;;;;;;4994337;28;20223;-67
2022/09/17 04:24:56;;;;;;;1999.90;999.90;;;10.50;99.90;;;;;;4994083;28;20913;-67
2022/09/17 04:27:23;;;;;;;1999.90;999.90;;;10.50;99.90;;;;;;4993803;28;20576;-67
2022/09/17 04:29:48;;;;;;;1999.90;999.90;;;10.50;99.90;;;;;;4993576;28;20601;-67
2022/09/17 04:32:14;;;;;;;1999.90;999.90;;;10.40;99.90;;;;;;4993954;28;20404;-67
2022/09/17 04:34:40;;;;;;;1999.90;999.90;;;10.40;99.90;;;;;;4993872;28;20172;-67
2022/09/17 04:37:05;;;;;;;1999.90;999.90;;;10.40;99.90;;;;;;4993575;28;20180;-67
2022/09/17 04:39:31;;;;;;;1999.90;999.90;;;10.50;99.90;;;;;;4993657;28;20240;-67
2022/09/17 04:41:56;;;;;;;1999.90;999.90;;;10.50;99.90;;;;;;4993710;28;20177;-67
2022/09/17 04:44:22;;;;;;;1999.90;999.90;;;10.50;99.90;;;;;;4993716;28;20677;-67
2022/09/17 04:46:47;;;;;;;1999.90;999.90;;;10.60;99.90;;;;;;4993443;28;20257;-67
2022/09/17 04:49:13;;;;;;;1999.90;999.90;;;10.50;99.90;;;;;;4993471;28;20666;-67
2022/09/17 04:51:38;;;;;;;1999.90;999.90;;;10.60;99.90;;;;;;4993543;28;20250;-67
2022/09/17 04:54:04;;;;;;;1999.90;999.90;;;10.60;99.90;;;;;;4993555;28;20222;-67
2022/09/17 04:56:30;;;;;;;1999.90;999.90;;;10.60;99.90;;;;;;4993190;28;20545;-67
2022/09/17 04:58:55;;;;;;;1999.90;999.90;;;10.70;99.90;;;;;;4993435;28;20224;-67
2022/09/17 05:01:21;;;;;;;1999.90;999.90;;;10.70;99.90;;;;;;4993445;28;20541;-67
2022/09/17 05:03:47;;;;;;;1999.90;999.90;;;10.80;99.90;;;;;;4993184;28;20200;-67
2022/09/17 05:06:12;;;;;;;1999.90;999.90;;;10.70;99.90;;;;;;4993415;28;20204;-67
2022/09/17 05:08:38;;;;;;;1999.90;999.90;;;10.70;99.90;;;;;;4993267;28;20275;-67
2022/09/17 05:11:03;;;;;;;1999.90;999.90;;;10.70;99.90;;;;;;4993256;28;20356;-67
2022/09/17 05:13:29;;;;;;;1999.90;999.90;;;10.70;99.90;;;;;;4993226;28;20228;-67
2022/09/17 05:15:58;;;;;;;1999.90;999.90;;;10.70;99.90;;;;;;4993061;28;20218;-67
2022/09/17 05:18:24;;;;;;;1999.90;999.90;;;10.70;99.90;;;;;;4992848;28;20196;-67
2022/09/17 05:20:50;;;;;;;1999.90;999.90;;;10.70;99.90;;;;;;4993309;28;20434;-67
2022/09/17 05:23:16;;;;;;;1999.90;999.90;;;10.60;99.90;;;;;;4992981;28;20562;-67
2022/09/17 05:25:42;;;;;;;1999.90;999.90;;;10.60;99.90;;;;;;4993089;28;20182;-67
2022/09/17 05:28:07;;;;;;;1999.90;999.90;;;10.60;99.90;;;;;;4992660;28;20423;-67
2022/09/17 05:30:33;;;;;;;1999.90;999.90;;;10.50;99.90;;;;;;4992924;28;20635;-67
2022/09/17 05:33:05;;;;;;;1999.90;999.90;;;10.60;99.90;;;;;;4992829;28;20178;-67
2022/09/17 05:35:32;;;;;;;1999.90;999.90;;;10.60;99.90;;;;;;4993006;28;20201;-67
2022/09/17 05:38:03;;;;;;;1999.90;999.90;;;10.60;99.90;;;;;;4992412;28;20961;-67
2022/09/17 05:40:30;;;;;;;1999.90;999.90;;;10.60;99.90;;;;;;4992772;28;20422;-67
2022/09/17 05:43:00;;;;;;;1999.90;999.90;;;10.70;99.90;;;;;;4991897;28;20451;-67
2022/09/17 05:45:26;;;;;;;1999.90;999.90;;;10.80;99.90;;;;;;4992768;28;20404;-67
2022/09/17 05:47:56;;;;;;;1999.90;999.90;;;10.80;99.90;;;;;;4992369;28;20794;-67
2022/09/17 05:50:22;;;;;;;1999.90;999.90;;;10.80;99.90;;;;;;4992688;28;20447;-67
2022/09/17 05:52:48;;;;;;;1999.90;999.90;;;11.00;99.90;;;;;;4992774;28;20432;-67
2022/09/17 05:55:14;;;;;;;1999.90;999.90;;;11.10;99.90;;;;;;4992620;28;20470;-67
2022/09/17 05:57:40;;;;;;;1999.90;999.90;;;11.20;99.90;;;;;;4992187;28;20412;-67
2022/09/17 06:00:06;;;;;;;1999.90;999.90;;;11.20;99.90;;;;;;4992711;28;20176;-67
2022/09/17 06:02:31;;;;;;;1999.90;999.90;;;11.30;99.90;;;;;;4992529;28;20258;-67
2022/09/17 06:05:00;;;;;;;1999.90;999.90;;;11.30;99.90;;;;;;4992485;28;20408;-67
2022/09/17 06:07:26;;;;;;;1999.90;999.90;;;11.40;99.90;;;;;;4992367;28;20181;-67
2022/09/17 06:09:52;;;;;;;1999.90;999.90;;;11.40;99.90;;;;;;4992562;28;20999;-67
2022/09/17 06:12:17;;;;;;;1999.90;999.90;;;11.40;99.90;;;;;;4992397;28;20918;-67
2022/09/17 06:14:43;;;;;;;1999.90;999.90;;;11.40;99.90;;;;;;4992281;28;20170;-67
2022/09/17 06:17:08;;;;;;;1999.90;999.90;;;11.50;99.90;;;;;;4992145;28;20697;-67
2022/09/17 06:19:34;;;;;;;1999.90;999.90;;;11.40;99.90;;;;;;4992292;28;20606;-67
2022/09/17 06:22:00;;;;;;;1999.90;999.90;;;11.50;99.90;;;;;;4992335;28;20179;-67
2022/09/17 06:24:26;;;;;;;1999.90;999.90;;;11.60;99.90;;;;;;4992385;28;20228;-67
2022/09/17 06:26:52;;;;;;;1999.90;999.90;;;11.60;99.90;;;;;;4992093;28;20438;-66
2022/09/17 06:29:18;;;;;;;1999.90;999.90;;;11.50;99.90;;;;;;4992205;28;20449;-67
2022/09/17 06:31:46;;;;;;;1999.90;999.90;;;11.50;99.90;;;;;;4992233;28;20166;-67
2022/09/17 06:34:12;;;;;;;1999.90;999.90;;;11.50;99.90;;;;;;4992402;28;20405;-67
2022/09/17 06:36:38;;;;;;;1999.90;999.90;;;11.40;99.90;;;;;;4992047;28;20416;-67
2022/09/17 06:39:03;;;;;;;1999.90;999.90;;;11.40;99.90;;;;;;4992112;28;20849;-67
2022/09/17 06:41:29;;;;;;;1999.90;999.90;;;11.30;99.90;;;;;;4992172;28;20586;-67
2022/09/17 06:43:55;;;;;;;1999.90;999.90;;;11.30;99.90;;;;;;4992061;28;20287;-67
2022/09/17 06:46:20;;;;;;;1999.90;999.90;;;11.30;99.90;;;;;;4992077;28;20167;-67
2022/09/17 06:48:46;;;;;;;1999.90;999.90;;;11.40;99.90;;;;;;4991984;28;20428;-67
2022/09/17 06:51:13;;;;;;;1999.90;999.90;;;11.30;99.90;;;;;;4992131;28;20173;-67
2022/09/17 06:53:39;;;;;;;1999.90;999.90;;;11.30;99.90;;;;;;4993381;28;20474;-66
2022/09/17 06:56:07;;;;;;;1999.90;999.90;;;11.30;99.90;;;;;;4995667;28;20891;-67
2022/09/17 06:58:36;;;;;;;1999.90;999.90;;;11.30;99.90;;;;;;4995387;28;20431;-67
2022/09/17 07:01:02;;;;;;;1999.90;999.90;;;11.30;99.90;;;;;;4995778;28;20417;-67
2022/09/17 07:03:29;;;;;;;1999.90;999.90;;;11.40;99.90;;;;;;4995439;28;20470;-67
2022/09/17 07:05:55;;;;;;;1999.90;999.90;;;11.40;99.90;;;;;;4995475;28;20451;-67
2022/09/17 07:08:21;;;;;;;1999.90;999.90;;;11.40;99.90;;;;;;4995330;28;20451;-67
2022/09/17 07:10:47;;;;;;;1999.90;999.90;;;11.40;99.90;;;;;;4995442;28;20405;-67
2022/09/17 07:13:13;;;;;;;1999.90;999.90;;;11.50;99.90;;;;;;4995360;28;20418;-67
2022/09/17 07:15:38;;;;;;;1999.90;999.90;;;11.50;99.90;;;;;;4995400;28;20554;-67
2022/09/17 07:18:10;;;;;;;1999.90;999.90;;;11.50;99.90;;;;;;4995150;28;20460;-67
2022/09/17 07:20:36;;;;;;;1999.90;999.90;;;11.50;99.90;;;;;;4995383;28;20416;-67
2022/09/17 07:23:02;;;;;;;1999.90;999.90;;;11.60;99.90;;;;;;4995021;28;20444;-67
2022/09/17 07:25:28;;;;;;;1999.90;999.90;;;11.60;99.90;;;;;;4994897;28;20412;-67
2022/09/17 07:27:54;;;;;;;1999.90;999.90;;;11.70;99.90;;;;;;4994709;28;20616;-67
2022/09/17 07:30:19;;;;;;;1999.90;999.90;;;11.80;99.90;;;;;;4995297;28;20217;-67
2022/09/17 07:32:45;;;;;;;1999.90;999.90;;;11.80;99.90;;;;;;4994998;28;20606;-67
2022/09/17 07:35:11;;;;;;;1999.90;999.90;;;11.90;99.90;;;;;;4995038;28;20177;-67
2022/09/17 07:37:38;;;;;;;1999.90;999.90;;;12.00;99.90;;;;;;4994605;28;20979;-67
2022/09/17 07:40:07;;;;;;;1999.90;999.90;;;12.20;99.90;;;;;;4995010;28;20195;-67
2022/09/17 07:42:33;;;;;;;1999.90;999.90;;;12.30;99.90;;;;;;4995009;28;20460;-67
2022/09/17 07:44:59;;;;;;;1999.90;999.90;;;12.40;99.90;;;;;;4994968;28;20428;-67
2022/09/17 07:47:25;;;;;;;1999.90;999.90;;;12.50;99.90;;;;;;4994547;28;20913;-67
2022/09/17 07:49:50;;;;;;;1999.90;999.90;;;12.50;99.90;;;;;;4994832;28;20249;-67
2022/09/17 07:52:16;;;;;;;1999.90;999.90;;;12.50;99.90;;;;;;4994751;28;20658;-67
2022/09/17 07:54:42;;;;;;;1999.90;999.90;;;12.60;99.90;;;;;;4994709;28;20178;-67
2022/09/17 07:57:07;;;;;;;1999.90;999.90;;;12.70;99.90;;;;;;4994369;28;20200;-67
2022/09/17 07:59:33;;;;;;;1999.90;999.90;;;12.70;99.90;;;;;;4994530;28;20701;-67
2022/09/17 08:01:58;;;;;;;1999.90;999.90;;;12.80;99.90;;;;;;4995081;28;20252;-67
2022/09/17 08:04:24;;;;;;;1999.90;999.90;;;12.80;99.90;;;;;;4995030;28;20203;-67
2022/09/17 08:06:50;;;;;;;1999.90;999.90;;;12.90;99.90;;;;;;4994811;28;20173;-67
2022/09/17 08:09:16;;;;;;;1999.90;999.90;;;13.00;99.90;;;;;;4995412;28;20435;-67
2022/09/17 08:11:42;;;;;;;1999.90;999.90;;;12.90;99.90;;;;;;4993824;28;20189;-66
2022/09/17 08:14:13;;;;;;;1999.90;999.90;;;12.90;99.90;;;;;;4995806;28;20911;-68
2022/09/17 08:16:39;;;;;;;1999.90;999.90;;;12.90;99.90;;;;;;4995678;28;20185;-67
2022/09/17 08:19:04;;;;;;;1999.90;999.90;;;13.00;99.90;;;;;;4995622;28;21005;-67
2022/09/17 08:21:30;;;;;;;1999.90;999.90;;;13.00;99.90;;;;;;4995450;28;20445;-66
2022/09/17 08:23:56;;;;;;;1999.90;999.90;;;13.10;99.90;;;;;;4995274;28;20542;-68
2022/09/17 08:26:22;;;;;;;1999.90;999.90;;;13.20;99.90;;;;;;4994872;28;20287;-67
2022/09/17 08:28:50;;;;;;;1999.90;999.90;;;13.30;99.90;;;;;;4994973;28;20480;-67
2022/09/17 08:31:18;;;;;;;1999.90;999.90;;;13.40;99.90;;;;;;4995425;28;20409;-67
2022/09/17 08:33:45;;;;;;;1999.90;999.90;;;13.50;99.90;;;;;;4994803;28;20592;-67
2022/09/17 08:36:13;;;;;;;1999.90;999.90;;;13.40;99.90;;;;;;4994920;28;20444;-66
2022/09/17 08:38:39;;;;;;;1999.90;999.90;;;13.40;99.90;;;;;;4994949;28;20476;-67
2022/09/17 08:41:22;;;;;;;1999.90;999.90;;;13.50;99.90;;;;;;4993366;28;20420;-67
2022/09/17 08:44:10;;;;;;;1999.90;999.90;;;13.60;99.90;;;;;;4993469;28;20453;-67
2022/09/17 08:46:51;;;;;;;1999.90;999.90;;;13.50;99.90;;;;;;4993099;28;20944;-67
2022/09/17 08:49:32;;;;;;;1999.90;999.90;;;13.60;99.90;;;;;;4993361;28;20430;-67
2022/09/17 08:52:22;;;;;;;1999.90;999.90;;;13.80;99.90;;;;;;4993419;28;20977;-67
2022/09/17 08:55:30;;;;;;;1999.90;999.90;;;13.80;99.90;;;;;;4993258;28;20481;-66
2022/09/17 08:58:23;;;;;;;1999.90;999.90;;;13.90;99.90;;;;;;4963841;28;20438;-67
2022/09/17 09:01:00;;;;;;;1999.90;999.90;;;13.80;99.90;;;;;;4993024;28;20397;-67
2022/09/17 09:03:59;;;;;;;1999.90;999.90;;;13.90;99.90;;;;;;4992912;28;20819;-67
2022/09/17 09:06:31;;;;;;;1999.90;999.90;;;13.80;99.90;;;;;;4992965;28;20395;-67
2022/09/17 09:09:08;;;;;;;1999.90;999.90;;;13.80;99.90;;;;;;4992810;28;20822;-67
2022/09/17 09:11:34;;;;;;;1999.90;999.90;;;14.00;99.90;;;;;;4992962;28;20423;-67
2022/09/17 09:14:28;;;;;;;1999.90;999.90;;;14.00;99.90;;;;;;4992716;28;20415;-67
2022/09/17 09:16:55;;;;;;;1999.90;999.90;;;14.10;99.90;;;;;;4992339;28;20265;-67
2022/09/17 09:19:24;;;;;;;1999.90;999.90;;;14.10;99.90;;;;;;4992879;28;20429;-67
2022/09/17 09:22:17;;;;;;;1999.90;999.90;;;14.20;99.90;;;;;;4992829;28;20466;-67
2022/09/17 09:25:10;;;;;;;1999.90;999.90;;;14.30;99.90;;;;;;4993001;28;20904;-67
2022/09/17 09:27:43;;;;;;;1999.90;999.90;;;14.30;99.90;;;;;;4992372;28;20414;-67
2022/09/17 09:30:12;;;;;;;1999.90;999.90;;;14.20;99.90;;;;;;4992543;28;20774;-67
2022/09/17 09:32:58;;;;;;;1999.90;999.90;;;14.30;99.90;;;;;;4977303;28;20422;-67
2022/09/17 09:35:30;;;;;;;1999.90;999.90;;;14.60;99.90;;;;;;4973195;28;20411;-68
2022/09/17 09:38:03;;;;;;;1999.90;999.90;;;14.60;99.90;;;;;;4972630;28;20444;-67
2022/09/17 09:40:50;;;;;;;1999.90;999.90;;;14.60;99.90;;;;;;4973152;28;20402;-67
2022/09/17 09:43:23;;;;;;;1999.90;999.90;;;14.80;99.90;;;;;;4972929;28;21057;-67
2022/09/17 09:46:07;;;;;;;1999.90;999.90;;;14.80;99.90;;;;;;4973013;28;20406;-67
2022/09/17 09:48:32;;;;;;;1999.90;999.90;;;14.90;99.90;;;;;;4986516;28;20493;-67
2022/09/17 09:51:39;;;;;;;1999.90;999.90;;;15.00;99.90;;;;;;4992787;28;20927;-67
2022/09/17 09:54:23;;;;;;;1999.90;999.90;;;14.90;99.90;;;;;;4992409;28;20252;-66
2022/09/17 09:56:57;;;;;;;1999.90;999.90;;;14.90;99.90;;;;;;4992309;28;20405;-66
2022/09/17 09:59:24;;;;;;;1999.90;999.90;;;14.80;99.90;;;;;;4997065;28;20440;-66
2022/09/17 10:01:50;;;;;;;1999.90;999.90;;;14.80;99.90;;;;;;5001913;28;20405;-66
2022/09/17 10:04:27;;;;;;;1999.90;999.90;;;14.70;99.90;;;;;;5002995;28;20454;-67
2022/09/17 10:07:02;;;;;;;1999.90;999.90;;;14.60;99.90;;;;;;4999363;28;20402;-67
2022/09/17 10:09:31;;;;;;;1999.90;999.90;;;14.50;99.90;;;;;;4999786;28;20485;-68
2022/09/17 10:12:07;;;;;;;1999.90;999.90;;;14.60;99.90;;;;;;4995290;28;20423;-68
2022/09/17 10:14:37;;;;;;;1999.90;999.90;;;14.60;99.90;;;;;;4995378;28;20899;-68
2022/09/17 10:17:19;;;;;;;1999.90;999.90;;;14.70;99.90;;;;;;4994608;28;20442;-68
2022/09/17 10:20:09;;;;;;;1999.90;999.90;;;14.80;99.90;;;;;;4995908;28;20419;-68
2022/09/17 10:22:46;;;;;;;1999.90;999.90;;;14.80;99.90;;;;;;4994849;28;20512;-68
2022/09/17 10:25:30;;;;;;;1999.90;999.90;;;14.60;99.90;;;;;;4995150;28;20900;-67
2022/09/17 10:27:58;;;;;;;1999.90;999.90;;;14.50;99.90;;;;;;4994504;28;20421;-68
2022/09/17 10:30:24;;;;;;;1999.90;999.90;;;14.30;99.90;;;;;;4997993;28;20553;-68
2022/09/17 10:33:11;;;;;;;1999.90;999.90;;;14.20;99.90;;;;;;4998962;28;20425;-68
2022/09/17 10:35:36;;;;;;;1999.90;999.90;;;14.00;99.90;;;;;;4998062;28;20409;-68
2022/09/17 10:38:02;;;;;;;1999.90;999.90;;;13.90;99.90;;;;;;4997344;28;20451;-67
2022/09/17 10:40:30;;;;;;;1999.90;999.90;;;13.70;99.90;;;;;;4998215;28;20566;-67
2022/09/17 10:43:20;;;;;;;1999.90;999.90;;;13.90;99.90;;;;;;4998131;28;20188;-67
2022/09/17 10:45:56;;;;;;;1999.90;999.90;;;14.20;99.90;;;;;;4997953;28;20407;-68
2022/09/17 10:48:22;;;;;;;1999.90;999.90;;;14.40;99.90;;;;;;4997525;28;20445;-68
2022/09/17 10:50:49;;;;;;;1999.90;999.90;;;14.70;99.90;;;;;;4998004;28;20494;-68
2022/09/17 10:53:16;;;;;;;1999.90;999.90;;;14.90;99.90;;;;;;4997732;28;20168;-68
2022/09/17 10:55:54;;;;;;;1999.90;999.90;;;15.00;99.90;;;;;;4997266;28;20925;-66
2022/09/17 10:58:32;;;;;;;1999.90;999.90;;;15.10;99.90;;;;;;4996658;28;20942;-68
2022/09/17 11:01:21;;;;;;;1999.90;999.90;;;15.20;99.90;;;;;;4995199;28;20415;-68
2022/09/17 11:04:29;;;;;;;1999.90;999.90;;;15.30;99.90;;;;;;4995094;28;20459;-67
2022/09/17 11:07:30;;;;;;;1999.90;999.90;;;15.40;99.90;;;;;;4995066;28;20410;-68
2022/09/17 11:10:14;;;;;;;1999.90;999.90;;;15.60;99.90;;;;;;4995077;28;20916;-68
2022/09/17 11:12:59;;;;;;;1999.90;999.90;;;15.80;99.90;;;;;;4994812;28;20493;-68
2022/09/17 11:16:11;;;;;;;1999.90;999.90;;;15.80;99.90;;;;;;4995078;28;20911;-68
2022/09/17 11:18:44;;;;;;;1999.90;999.90;;;15.50;99.90;;;;;;4948673;28;20435;-67
2022/09/17 11:22:06;;;;;;;1999.90;999.90;;;15.20;99.90;;;;;;4995399;28;20407;-67
2022/09/17 11:24:35;;;;;;;1999.90;999.90;;;14.90;99.90;;;;;;4934421;29;20515;-67
2022/09/17 11:27:19;;;;;;;1999.90;999.90;;;14.60;99.90;;;;;;4982881;28;21001;-67
2022/09/17 11:30:13;;;;;;;1999.90;999.90;;;14.60;99.90;;;;;;4994686;28;20435;-67
2022/09/17 11:33:15;;;;;;;1999.90;999.90;;;14.60;99.90;;;;;;4994542;28;20409;-68
2022/09/17 11:36:03;;;;;;;1999.90;999.90;;;14.70;99.90;;;;;;4994591;28;20606;-67
2022/09/17 11:38:49;;;;;;;1999.90;999.90;;;14.70;99.90;;;;;;4993912;28;20456;-67
2022/09/17 11:41:18;;;;;;;1999.90;999.90;;;14.70;99.90;;;;;;4994600;28;20455;-67
2022/09/17 11:43:51;;;;;;;1999.90;999.90;;;14.90;99.90;;;;;;4994426;28;20821;-68
2022/09/17 11:46:23;;;;;;;1999.90;999.90;;;15.80;99.90;;;;;;4994315;28;20489;-68
2022/09/17 11:49:00;;;;;;;1999.90;999.90;;;16.40;99.90;;;;;;4994070;28;20937;-68
2022/09/17 11:51:35;;;;;;;1999.90;999.90;;;16.80;99.90;;;;;;4994373;28;20395;-67
2022/09/17 11:54:15;;;;;;;1999.90;999.90;;;16.80;99.90;;;;;;4994243;28;20932;-68
2022/09/17 11:56:44;;;;;;;1999.90;999.90;;;16.20;99.90;;;;;;4993964;28;20548;-67
2022/09/17 11:59:14;;;;;;;1999.90;999.90;;;15.70;99.90;;;;;;4993839;28;20432;-68
2022/09/17 12:01:48;;;;;;;1999.90;999.90;;;15.30;99.90;;;;;;4994270;28;20507;-67
2022/09/17 12:04:25;;;;;;;1999.90;999.90;;;14.90;99.90;;;;;;4994225;28;20607;-66
2022/09/17 12:06:56;;;;;;;1999.90;999.90;;;14.20;99.90;;;;;;4994070;28;20413;-66
2022/09/17 12:09:27;;;;;;;1999.90;999.90;;;13.70;99.90;;;;;;4995606;28;20430;-67
2022/09/17 12:12:00;;;;;;;1999.90;999.90;;;13.50;99.90;;;;;;4995261;28;20911;-67
2022/09/17 12:14:59;;;;;;;1999.90;999.90;;;13.30;99.90;;;;;;4994374;28;20441;-67
2022/09/17 12:17:38;;;;;;;1999.90;999.90;;;13.70;99.90;;;;;;4994416;28;20785;-67
2022/09/17 12:20:20;;;;;;;1999.90;999.90;;;14.40;99.90;;;;;;4994705;28;20403;-67
2022/09/17 12:22:49;;;;;;;1999.90;999.90;;;15.20;99.90;;;;;;4994192;28;20456;-67